createdAt,value
2023-03-07T00:00:37.249Z,99.90
2023-03-07T00:01:39.768Z,99.90
2023-03-07T00:02:41.714Z,99.90
2023-03-07T00:03:43.652Z,99.90
2023-03-07T00:04:47.050Z,99.90
2023-03-07T00:05:48.981Z,99.90
2023-03-07T00:06:50.833Z,99.90
2023-03-07T00:07:52.674Z,99.90
2023-03-07T00:08:58.229Z,99.90
2023-03-07T00:10:00.182Z,99.90
2023-03-07T00:11:07.790Z,99.90
2023-03-07T00:12:10.772Z,99.90
2023-03-07T00:13:12.820Z,99.90
2023-03-07T00:14:14.699Z,99.90
2023-03-07T00:15:17.257Z,99.90
2023-03-07T00:16:21.681Z,99.90
2023-03-07T00:17:23.634Z,99.90
2023-03-07T00:18:25.492Z,99.90
2023-03-07T00:19:27.379Z,99.90
2023-03-07T00:20:29.345Z,99.90
2023-03-07T00:21:32.378Z,99.90
2023-03-07T00:22:35.457Z,99.90
2023-03-07T00:23:39.486Z,99.90
2023-03-07T00:24:41.530Z,99.90
2023-03-07T00:25:43.594Z,99.90
2023-03-07T00:26:45.509Z,99.90
2023-03-07T00:27:47.358Z,99.90
2023-03-07T00:28:51.331Z,99.90
2023-03-07T00:29:53.290Z,99.90
2023-03-07T00:30:59.272Z,99.90
2023-03-07T00:32:01.134Z,99.90
2023-03-07T00:33:03.005Z,99.90
2023-03-07T00:34:05.042Z,99.90
2023-03-07T00:35:07.504Z,99.90
2023-03-07T00:36:15.306Z,99.90
2023-03-07T00:37:17.139Z,99.90
2023-03-07T00:38:18.979Z,99.90
2023-03-07T00:39:20.888Z,99.90
2023-03-07T00:40:22.727Z,99.90
2023-03-07T00:41:27.167Z,99.90
2023-03-07T00:42:29.063Z,99.90
2023-03-07T00:43:31.605Z,99.90
2023-03-07T00:44:33.448Z,99.90
2023-03-07T00:45:35.391Z,99.90
2023-03-07T00:46:37.320Z,99.90
2023-03-07T00:47:39.185Z,99.90
2023-03-07T00:48:41.318Z,99.90
2023-03-07T00:49:43.281Z,99.90
2023-03-07T00:50:45.611Z,99.90
2023-03-07T00:51:47.530Z,99.90
2023-03-07T00:52:49.421Z,99.90
2023-03-07T00:53:51.955Z,99.90
2023-03-07T00:54:53.868Z,99.90
2023-03-07T00:56:01.022Z,99.90
2023-03-07T00:57:02.944Z,99.90
2023-03-07T00:58:04.916Z,99.90
2023-03-07T00:59:07.186Z,99.90
2023-03-07T01:00:10.872Z,99.90
2023-03-07T01:01:15.539Z,99.90
2023-03-07T01:02:17.487Z,99.90
2023-03-07T01:03:19.847Z,99.90
2023-03-07T01:04:21.790Z,99.90
2023-03-07T01:05:23.883Z,99.90
2023-03-07T01:06:28.861Z,99.90
2023-03-07T01:07:30.781Z,99.90
2023-03-07T01:08:33.176Z,99.90
2023-03-07T01:09:35.042Z,99.90
2023-03-07T01:10:37.030Z,99.90
2023-03-07T01:11:39.694Z,99.90
2023-03-07T01:12:43.765Z,99.90
2023-03-07T01:13:48.029Z,99.90
2023-03-07T01:14:52.966Z,99.90
2023-03-07T01:15:54.902Z,99.90
2023-03-07T01:16:56.889Z,99.90
2023-03-07T01:17:59.149Z,99.90
2023-03-07T01:19:04.375Z,99.90
2023-03-07T01:20:07.192Z,99.90
2023-03-07T01:21:16.257Z,99.90
2023-03-07T01:22:18.117Z,99.90
2023-03-07T01:23:20.045Z,99.90
2023-03-07T01:24:21.943Z,99.90
2023-03-07T01:25:23.809Z,99.90
2023-03-07T01:26:31.321Z,99.90
2023-03-07T01:27:33.153Z,99.90
2023-03-07T01:28:35.098Z,99.90
2023-03-07T01:29:36.942Z,99.90
2023-03-07T01:30:38.998Z,99.90
2023-03-07T01:31:40.992Z,99.90
2023-03-07T01:32:42.998Z,99.90
2023-03-07T01:33:46.735Z,99.90
2023-03-07T01:34:48.626Z,99.90
2023-03-07T01:35:50.536Z,99.90
2023-03-07T01:36:52.426Z,99.90
2023-03-07T01:37:55.101Z,99.90
2023-03-07T01:39:06.670Z,99.90
2023-03-07T01:40:10.016Z,99.90
2023-03-07T01:41:11.930Z,99.90
2023-03-07T01:42:14.010Z,99.90
2023-03-07T01:43:28.139Z,99.90
2023-03-07T01:44:30.144Z,99.90
2023-03-07T01:45:35.075Z,99.90
2023-03-07T01:46:57.459Z,99.90
2023-03-07T01:47:59.292Z,99.90
2023-03-07T01:49:30.279Z,99.90
2023-03-07T01:50:32.290Z,99.90
2023-03-07T01:51:36.263Z,99.90
2023-03-07T01:53:01.401Z,99.90
2023-03-07T01:54:06.411Z,99.90
2023-03-07T01:55:21.556Z,99.90
2023-03-07T01:56:23.647Z,99.90
2023-03-07T01:57:31.374Z,99.90
2023-03-07T01:58:34.862Z,99.90
2023-03-07T01:59:42.620Z,99.90
2023-03-07T02:00:45.123Z,99.90
2023-03-07T02:01:47.296Z,99.90
2023-03-07T02:02:59.638Z,99.90
2023-03-07T02:04:18.495Z,99.90
2023-03-07T02:05:25.633Z,99.90
2023-03-07T02:06:31.164Z,99.90
2023-03-07T02:07:39.012Z,99.90
2023-03-07T02:08:42.046Z,99.90
2023-03-07T02:09:48.173Z,99.90
2023-03-07T02:10:54.285Z,99.90
2023-03-07T02:11:57.089Z,99.90
2023-03-07T02:12:58.969Z,99.90
2023-03-07T02:14:00.869Z,99.90
2023-03-07T02:15:04.070Z,99.90
2023-03-07T02:16:07.626Z,99.90
2023-03-07T02:17:09.732Z,99.90
2023-03-07T02:18:16.322Z,99.90
2023-03-07T02:19:56.010Z,99.90
2023-03-07T02:21:19.101Z,99.90
2023-03-07T02:22:20.984Z,99.90
2023-03-07T02:23:25.682Z,99.90
2023-03-07T02:24:53.909Z,99.90
2023-03-07T02:26:02.679Z,99.90
2023-03-07T02:27:05.999Z,99.90
2023-03-07T02:28:10.397Z,99.90
2023-03-07T02:29:13.144Z,99.90
2023-03-07T02:30:15.032Z,99.90
2023-03-07T02:32:32.055Z,99.90
2023-03-07T02:33:41.098Z,99.90
2023-03-07T02:34:42.951Z,99.90
2023-03-07T02:35:45.163Z,99.90
2023-03-07T02:36:48.376Z,99.90
2023-03-07T02:37:54.696Z,99.90
2023-03-07T02:38:57.984Z,99.90
2023-03-07T02:40:06.086Z,99.90
2023-03-07T02:41:11.176Z,99.90
2023-03-07T02:42:25.169Z,99.90
2023-03-07T02:43:27.366Z,99.90
2023-03-07T02:44:29.296Z,99.90
2023-03-07T02:45:31.200Z,99.90
2023-03-07T02:46:33.137Z,99.90
2023-03-07T02:47:35.081Z,99.90
2023-03-07T02:48:36.921Z,99.90
2023-03-07T02:49:39.013Z,99.90
2023-03-07T02:50:40.876Z,99.90
2023-03-07T02:51:42.733Z,99.90
2023-03-07T02:52:45.546Z,99.90
2023-03-07T02:53:47.410Z,99.90
2023-03-07T02:54:49.332Z,99.90
2023-03-07T02:55:51.182Z,99.90
2023-03-07T02:56:54.122Z,99.90
2023-03-07T02:57:55.976Z,99.90
2023-03-07T02:58:57.830Z,99.90
2023-03-07T03:00:00.165Z,99.90
2023-03-07T03:01:02.133Z,99.90
2023-03-07T03:02:04.129Z,99.90
2023-03-07T03:03:05.903Z,99.90
2023-03-07T03:04:07.674Z,99.90
2023-03-07T03:05:09.628Z,99.90
2023-03-07T03:06:11.476Z,99.90
2023-03-07T03:07:13.317Z,99.90
2023-03-07T03:08:15.175Z,99.90
2023-03-07T03:09:17.123Z,99.90
2023-03-07T03:10:19.006Z,99.90
2023-03-07T03:11:20.763Z,99.90
2023-03-07T03:12:22.507Z,99.90
2023-03-07T03:13:24.964Z,99.90
2023-03-07T03:14:26.801Z,99.90
2023-03-07T03:15:28.757Z,99.90
2023-03-07T03:16:30.618Z,99.90
2023-03-07T03:17:32.389Z,99.90
2023-03-07T03:18:34.187Z,99.90
2023-03-07T03:19:35.972Z,99.90
2023-03-07T03:20:41.136Z,99.90
2023-03-07T03:21:43.906Z,99.90
2023-03-07T03:22:45.899Z,99.90
2023-03-07T03:23:47.638Z,99.90
2023-03-07T03:24:49.422Z,99.90
2023-03-07T03:25:57.886Z,99.90
2023-03-07T03:26:59.842Z,99.90
2023-03-07T03:28:01.717Z,99.90
2023-03-07T03:29:05.137Z,99.90
2023-03-07T03:30:07.480Z,99.90
2023-03-07T03:31:11.016Z,99.90
2023-03-07T03:32:12.829Z,99.90
2023-03-07T03:33:14.610Z,99.90
2023-03-07T03:34:16.524Z,99.90
2023-03-07T03:35:18.375Z,99.90
2023-03-07T03:36:20.512Z,99.90
2023-03-07T03:37:22.327Z,99.90
2023-03-07T03:38:24.366Z,99.90
2023-03-07T03:39:26.219Z,99.90
2023-03-07T03:40:28.023Z,99.90
2023-03-07T03:41:29.801Z,99.90
2023-03-07T03:42:31.536Z,99.90
2023-03-07T03:43:33.903Z,99.90
2023-03-07T03:44:35.648Z,99.90
2023-03-07T03:45:37.427Z,99.90
2023-03-07T03:46:39.279Z,99.90
2023-03-07T03:47:41.065Z,99.90
2023-03-07T03:48:43.091Z,99.90
2023-03-07T03:49:44.860Z,99.90
2023-03-07T03:50:46.574Z,99.90
2023-03-07T03:51:48.381Z,99.90
2023-03-07T03:52:50.142Z,99.90
2023-03-07T03:53:51.988Z,99.90
2023-03-07T03:54:53.742Z,99.90
2023-03-07T03:56:01.309Z,99.90
2023-03-07T03:57:03.206Z,99.90
2023-03-07T03:58:04.981Z,99.90
2023-03-07T03:59:06.701Z,99.90
2023-03-07T04:00:09.345Z,99.90
2023-03-07T04:01:11.950Z,99.90
2023-03-07T04:02:13.856Z,99.90
2023-03-07T04:03:15.676Z,99.90
2023-03-07T04:04:17.469Z,99.90
2023-03-07T04:05:19.271Z,99.90
2023-03-07T04:06:22.319Z,99.90
2023-03-07T04:07:25.277Z,99.90
2023-03-07T04:08:27.137Z,99.90
2023-03-07T04:09:28.892Z,99.90
2023-03-07T04:10:30.647Z,99.90
2023-03-07T04:11:32.749Z,99.90
2023-03-07T04:12:34.622Z,99.90
2023-03-07T04:13:37.068Z,99.90
2023-03-07T04:14:38.967Z,99.90
2023-03-07T04:15:41.696Z,99.90
2023-03-07T04:16:43.894Z,99.90
2023-03-07T04:17:45.848Z,99.90
2023-03-07T04:18:47.795Z,99.90
2023-03-07T04:19:49.674Z,99.90
2023-03-07T04:20:52.548Z,99.90
2023-03-07T04:21:54.525Z,99.90
2023-03-07T04:22:56.416Z,99.90
2023-03-07T04:23:58.536Z,99.90
2023-03-07T04:25:00.392Z,99.90
2023-03-07T04:26:06.462Z,99.90
2023-03-07T04:27:08.457Z,99.90
2023-03-07T04:28:10.331Z,99.90
2023-03-07T04:29:12.276Z,99.90
2023-03-07T04:30:15.342Z,99.90
2023-03-07T04:31:26.399Z,99.90
2023-03-07T04:32:28.310Z,99.90
2023-03-07T04:33:30.228Z,99.90
2023-03-07T04:34:32.067Z,99.90
2023-03-07T04:35:33.948Z,99.90
2023-03-07T04:36:35.946Z,99.90
2023-03-07T04:37:37.801Z,99.90
2023-03-07T04:38:40.729Z,99.90
2023-03-07T04:39:42.594Z,99.90
2023-03-07T04:40:44.560Z,99.90
2023-03-07T04:41:46.477Z,99.90
2023-03-07T04:42:48.349Z,99.90
2023-03-07T04:43:50.242Z,99.90
2023-03-07T04:44:52.138Z,99.90
2023-03-07T04:45:54.349Z,99.90
2023-03-07T04:46:56.228Z,99.90
2023-03-07T04:47:58.083Z,99.90
2023-03-07T04:49:00.040Z,99.90
2023-03-07T04:50:01.925Z,99.90
2023-03-07T04:51:04.149Z,99.90
2023-03-07T04:52:06.489Z,99.90
2023-03-07T04:53:08.325Z,99.90
2023-03-07T04:54:10.772Z,99.90
2023-03-07T04:55:13.058Z,99.90
2023-03-07T04:56:17.623Z,99.90
2023-03-07T04:57:19.469Z,99.90
2023-03-07T04:58:21.302Z,99.90
2023-03-07T04:59:23.221Z,99.90
2023-03-07T05:00:25.126Z,99.90
2023-03-07T05:01:27.045Z,99.90
2023-03-07T05:02:28.962Z,99.90
2023-03-07T05:03:30.944Z,99.90
2023-03-07T05:04:33.335Z,99.90
2023-03-07T05:05:37.578Z,99.90
2023-03-07T05:06:39.799Z,99.90
2023-03-07T05:07:42.063Z,99.90
2023-03-07T05:08:44.112Z,99.90
2023-03-07T05:09:46.047Z,99.90
2023-03-07T05:10:47.948Z,99.90
2023-03-07T05:11:49.850Z,99.90
2023-03-07T05:12:51.722Z,99.90
2023-03-07T05:13:56.096Z,99.90
2023-03-07T05:14:57.880Z,99.90
2023-03-07T05:16:01.010Z,99.90
2023-03-07T05:17:02.928Z,99.90
2023-03-07T05:18:05.045Z,99.90
2023-03-07T05:19:06.980Z,99.90
2023-03-07T05:20:10.971Z,99.90
2023-03-07T05:21:13.066Z,99.90
2023-03-07T05:22:14.917Z,99.90
2023-03-07T05:23:18.197Z,99.90
2023-03-07T05:24:20.415Z,99.90
2023-03-07T05:25:22.400Z,99.90
2023-03-07T05:26:24.173Z,99.90
2023-03-07T05:27:25.924Z,99.90
2023-03-07T05:28:27.703Z,99.90
2023-03-07T05:29:29.556Z,99.90
2023-03-07T05:30:31.449Z,99.90
2023-03-07T05:31:33.902Z,99.90
2023-03-07T05:32:37.516Z,99.90
2023-03-07T05:33:42.684Z,99.90
2023-03-07T05:34:47.016Z,99.90
2023-03-07T05:35:48.991Z,99.90
2023-03-07T05:36:50.864Z,99.90
2023-03-07T05:37:53.065Z,99.90
2023-03-07T05:38:56.568Z,99.90
2023-03-07T05:39:58.846Z,99.90
2023-03-07T05:41:00.742Z,99.90
2023-03-07T05:42:02.593Z,99.90
2023-03-07T05:43:04.943Z,99.90
2023-03-07T05:44:06.790Z,99.90
2023-03-07T05:45:09.610Z,99.90
2023-03-07T05:46:11.491Z,99.90
2023-03-07T05:47:13.515Z,99.90
2023-03-07T05:48:15.377Z,99.90
2023-03-07T05:49:17.345Z,99.90
2023-03-07T05:50:21.018Z,99.90
2023-03-07T05:51:22.947Z,99.90
2023-03-07T05:52:24.966Z,99.90
2023-03-07T05:53:26.710Z,99.90
2023-03-07T05:54:28.544Z,99.90
2023-03-07T05:55:30.440Z,99.90
2023-03-07T05:56:32.848Z,99.90
2023-03-07T05:57:34.735Z,99.90
2023-03-07T05:58:36.594Z,99.90
2023-03-07T05:59:38.474Z,99.90
2023-03-07T06:00:40.518Z,99.90
2023-03-07T06:01:42.898Z,99.90
2023-03-07T06:02:44.789Z,99.90
2023-03-07T06:03:47.734Z,99.90
2023-03-07T06:04:49.875Z,99.90
2023-03-07T06:05:52.023Z,99.90
2023-03-07T06:06:53.896Z,99.90
2023-03-07T06:07:56.152Z,99.90
2023-03-07T06:08:58.045Z,99.90
2023-03-07T06:09:59.950Z,99.90
2023-03-07T06:11:01.849Z,99.90
2023-03-07T06:12:04.134Z,99.90
2023-03-07T06:13:05.902Z,99.90
2023-03-07T06:14:07.654Z,99.90
2023-03-07T06:15:10.469Z,99.90
2023-03-07T06:16:12.348Z,99.90
2023-03-07T06:17:14.196Z,99.90
2023-03-07T06:18:16.076Z,99.90
2023-03-07T06:19:17.946Z,99.90
2023-03-07T06:20:22.689Z,99.90
2023-03-07T06:21:27.054Z,99.90
2023-03-07T06:22:31.822Z,99.90
2023-03-07T06:23:36.170Z,99.90
2023-03-07T06:24:38.123Z,99.90
2023-03-07T06:25:40.014Z,99.90
2023-03-07T06:26:41.870Z,99.90
2023-03-07T06:27:43.771Z,99.90
2023-03-07T06:28:45.860Z,99.90
2023-03-07T06:29:48.270Z,99.90
2023-03-07T06:30:50.490Z,99.90
2023-03-07T06:31:52.373Z,99.90
2023-03-07T06:32:54.461Z,99.90
2023-03-07T06:33:57.629Z,99.90
2023-03-07T06:34:59.678Z,99.90
2023-03-07T06:36:09.001Z,99.90
2023-03-07T06:37:10.916Z,99.90
2023-03-07T06:38:14.495Z,99.90
2023-03-07T06:39:21.304Z,99.90
2023-03-07T06:40:23.360Z,99.90
2023-03-07T06:41:25.313Z,99.90
2023-03-07T06:42:27.215Z,99.90
2023-03-07T06:43:29.502Z,99.90
2023-03-07T06:44:31.460Z,99.90
2023-03-07T06:45:33.966Z,99.90
2023-03-07T06:46:35.891Z,99.90
2023-03-07T06:47:37.786Z,99.90
2023-03-07T06:48:39.733Z,99.90
2023-03-07T06:49:41.691Z,99.90
2023-03-07T06:50:43.967Z,99.90
2023-03-07T06:51:45.960Z,99.90
2023-03-07T06:52:49.926Z,99.90
2023-03-07T06:53:51.717Z,99.90
2023-03-07T06:54:53.478Z,99.90
2023-03-07T06:55:55.268Z,99.90
2023-03-07T06:56:57.065Z,99.90
2023-03-07T06:57:58.796Z,99.90
2023-03-07T06:59:00.563Z,99.90
2023-03-07T07:00:03.778Z,99.90
2023-03-07T07:01:06.323Z,99.90
2023-03-07T07:02:11.708Z,99.90
2023-03-07T07:03:16.657Z,99.90
2023-03-07T07:04:18.526Z,99.90
2023-03-07T07:05:20.489Z,99.90
2023-03-07T07:06:22.370Z,99.90
2023-03-07T07:07:25.362Z,99.90
2023-03-07T07:08:27.669Z,99.90
2023-03-07T07:09:29.881Z,99.90
2023-03-07T07:10:31.747Z,99.90
2023-03-07T07:11:33.719Z,99.90
2023-03-07T07:12:35.816Z,99.90
2023-03-07T07:13:38.149Z,99.90
2023-03-07T07:14:40.015Z,99.90
2023-03-07T07:15:41.906Z,99.90
2023-03-07T07:16:43.837Z,99.90
2023-03-07T07:17:45.743Z,99.90
2023-03-07T07:18:49.637Z,99.90
2023-03-07T07:19:51.525Z,99.90
2023-03-07T07:20:58.654Z,99.90
2023-03-07T07:22:00.722Z,99.90
2023-03-07T07:23:02.664Z,99.90
2023-03-07T07:24:04.901Z,99.90
2023-03-07T07:25:07.017Z,99.90
2023-03-07T07:26:09.101Z,99.90
2023-03-07T07:27:12.617Z,99.90
2023-03-07T07:28:14.749Z,99.90
2023-03-07T07:29:16.626Z,99.90
2023-03-07T07:30:18.532Z,99.90
2023-03-07T07:31:20.535Z,99.90
2023-03-07T07:32:22.614Z,99.90
2023-03-07T07:33:24.672Z,99.90
2023-03-07T07:34:26.875Z,99.90
2023-03-07T07:35:28.795Z,99.90
2023-03-07T07:36:30.760Z,99.90
2023-03-07T07:37:32.482Z,99.90
2023-03-07T07:38:34.263Z,99.90
2023-03-07T07:39:36.074Z,99.90
2023-03-07T07:40:37.872Z,99.90
2023-03-07T07:41:39.717Z,99.90
2023-03-07T07:42:43.398Z,99.90
2023-03-07T07:43:50.240Z,99.90
2023-03-07T07:44:52.098Z,99.90
2023-03-07T07:45:54.365Z,99.90
2023-03-07T07:46:56.297Z,99.90
2023-03-07T07:47:58.949Z,99.90
2023-03-07T07:49:00.783Z,99.90
2023-03-07T07:50:02.681Z,99.90
2023-03-07T07:51:04.988Z,99.90
2023-03-07T07:52:06.757Z,99.90
2023-03-07T07:53:08.611Z,99.90
2023-03-07T07:54:10.665Z,99.90
2023-03-07T07:55:16.170Z,99.90
2023-03-07T07:56:18.170Z,99.90
2023-03-07T07:57:22.481Z,99.90
2023-03-07T07:58:25.243Z,99.90
2023-03-07T07:59:27.179Z,99.90
2023-03-07T08:00:29.166Z,99.90
2023-03-07T08:01:31.095Z,99.90
2023-03-07T08:02:35.683Z,99.90
2023-03-07T08:03:37.598Z,99.90
2023-03-07T08:04:39.867Z,99.90
2023-03-07T08:05:48.201Z,99.90
2023-03-07T08:06:50.055Z,99.90
2023-03-07T08:07:52.118Z,99.90
2023-03-07T08:08:54.949Z,99.90
2023-03-07T08:09:56.809Z,99.90
2023-03-07T08:10:58.585Z,99.90
2023-03-07T08:12:00.464Z,99.90
2023-03-07T08:13:02.213Z,99.90
2023-03-07T08:14:03.970Z,99.90
2023-03-07T08:15:06.065Z,99.90
2023-03-07T08:16:15.201Z,99.90
2023-03-07T08:17:17.029Z,99.90
2023-03-07T08:18:18.779Z,99.90
2023-03-07T08:19:20.511Z,99.90
2023-03-07T08:20:23.520Z,99.90
2023-03-07T08:21:25.850Z,99.90
2023-03-07T08:22:27.849Z,99.90
2023-03-07T08:23:29.586Z,99.90
2023-03-07T08:24:40.497Z,99.90
2023-03-07T08:25:42.878Z,99.90
2023-03-07T08:26:44.651Z,99.90
2023-03-07T08:27:46.431Z,99.90
2023-03-07T08:28:48.191Z,99.90
2023-03-07T08:29:50.110Z,99.90
2023-03-07T08:30:51.953Z,99.90
2023-03-07T08:31:54.432Z,99.90
2023-03-07T08:32:56.651Z,99.90
2023-03-07T08:33:58.418Z,99.90
2023-03-07T08:35:00.159Z,99.90
2023-03-07T08:36:02.057Z,99.90
2023-03-07T08:37:03.864Z,99.90
2023-03-07T08:38:05.613Z,99.90
2023-03-07T08:39:07.811Z,99.90
2023-03-07T08:40:09.994Z,99.90
2023-03-07T08:41:11.850Z,99.90
2023-03-07T08:42:13.833Z,99.90
2023-03-07T08:43:15.594Z,99.90
2023-03-07T08:44:29.200Z,99.90
2023-03-07T08:45:31.321Z,99.90
2023-03-07T08:46:33.143Z,99.90
2023-03-07T08:47:35.428Z,99.90
2023-03-07T08:48:37.437Z,99.90
2023-03-07T08:49:40.007Z,99.90
2023-03-07T08:50:41.784Z,99.90
2023-03-07T08:51:43.562Z,99.90
2023-03-07T08:52:45.288Z,99.90
2023-03-07T08:53:47.109Z,99.90
2023-03-07T08:54:48.909Z,99.90
2023-03-07T08:55:50.759Z,99.90
2023-03-07T08:56:52.535Z,99.90
2023-03-07T08:57:54.294Z,99.90
2023-03-07T08:58:56.096Z,99.90
2023-03-07T08:59:57.937Z,99.90
2023-03-07T09:00:59.730Z,99.90
2023-03-07T09:02:01.590Z,99.90
2023-03-07T09:03:03.682Z,99.90
2023-03-07T09:04:05.481Z,99.90
2023-03-07T09:05:07.417Z,99.90
2023-03-07T09:06:14.760Z,99.90
2023-03-07T09:07:16.597Z,99.90
2023-03-07T09:08:18.932Z,99.90
2023-03-07T09:09:20.703Z,99.90
2023-03-07T09:10:22.696Z,99.90
2023-03-07T09:11:26.818Z,99.90
2023-03-07T09:12:28.708Z,99.90
2023-03-07T09:13:30.538Z,99.90
2023-03-07T09:14:32.431Z,99.90
2023-03-07T09:15:34.230Z,99.90
2023-03-07T09:16:36.274Z,99.90
2023-03-07T09:17:38.081Z,99.90
2023-03-07T09:18:39.889Z,99.90
2023-03-07T09:19:43.175Z,99.90
2023-03-07T09:20:45.023Z,99.90
2023-03-07T09:21:46.805Z,99.90
2023-03-07T09:22:48.607Z,99.90
2023-03-07T09:23:50.380Z,99.90
2023-03-07T09:24:52.118Z,99.90
2023-03-07T09:25:54.060Z,99.90
2023-03-07T09:26:56.536Z,99.90
2023-03-07T09:27:58.335Z,99.90
2023-03-07T09:29:00.110Z,99.90
2023-03-07T09:30:01.901Z,99.90
2023-03-07T09:31:07.250Z,99.90
2023-03-07T09:32:09.146Z,99.90
2023-03-07T09:33:11.008Z,99.90
2023-03-07T09:34:12.910Z,99.90
2023-03-07T09:35:14.668Z,99.90
2023-03-07T09:36:17.939Z,99.90
2023-03-07T09:37:19.925Z,99.90
2023-03-07T09:38:21.699Z,99.90
2023-03-07T09:39:23.496Z,99.90
2023-03-07T09:40:26.377Z,99.90
2023-03-07T09:41:28.301Z,99.90
2023-03-07T09:42:36.308Z,99.90
2023-03-07T09:43:47.334Z,99.90
2023-03-07T09:44:55.140Z,99.90
2023-03-07T09:46:12.389Z,99.90
2023-03-07T09:47:20.256Z,99.90
2023-03-07T09:48:54.512Z,99.90
2023-03-07T09:49:56.380Z,99.90
2023-03-07T09:51:16.842Z,99.90
2023-03-07T09:52:29.291Z,99.90
2023-03-07T09:53:31.026Z,99.90
2023-03-07T09:54:44.450Z,99.90
2023-03-07T09:55:47.384Z,99.90
2023-03-07T09:56:52.603Z,99.90
2023-03-07T09:57:55.445Z,99.90
2023-03-07T09:59:06.652Z,99.90
2023-03-07T10:00:21.647Z,99.90
2023-03-07T10:01:26.717Z,99.90
2023-03-07T10:02:31.236Z,99.90
2023-03-07T10:03:42.109Z,99.90
2023-03-07T10:04:47.041Z,99.90
2023-03-07T10:05:50.235Z,99.90
2023-03-07T10:06:54.268Z,99.90
2023-03-07T10:07:56.270Z,99.90
2023-03-07T10:08:58.977Z,99.90
2023-03-07T10:10:01.789Z,99.90
2023-03-07T10:11:14.249Z,99.90
2023-03-07T10:12:31.414Z,99.90
2023-03-07T10:13:33.164Z,99.90
2023-03-07T10:14:51.628Z,99.70
2023-03-07T10:15:56.889Z,99.70
2023-03-07T10:17:12.589Z,99.60
2023-03-07T10:18:14.625Z,99.60
2023-03-07T10:19:33.731Z,99.20
2023-03-07T10:20:40.423Z,99.30
2023-03-07T10:21:58.381Z,99.20
2023-03-07T10:23:19.625Z,99.10
2023-03-07T10:24:22.295Z,98.90
2023-03-07T10:25:46.964Z,98.80
2023-03-07T10:26:57.558Z,98.90
2023-03-07T10:28:11.414Z,98.60
2023-03-07T10:29:15.317Z,98.40
2023-03-07T10:30:18.200Z,97.90
2023-03-07T10:31:29.639Z,98.00
2023-03-07T10:32:34.588Z,97.80
2023-03-07T10:33:39.828Z,97.70
2023-03-07T10:34:41.991Z,97.60
2023-03-07T10:35:44.679Z,97.50
2023-03-07T10:36:51.564Z,97.20
2023-03-07T10:37:59.184Z,96.80
2023-03-07T10:39:04.116Z,96.60
2023-03-07T10:40:06.463Z,96.50
2023-03-07T10:41:16.433Z,96.30
2023-03-07T10:42:20.212Z,96.30
2023-03-07T10:43:24.001Z,96.00
2023-03-07T10:44:26.671Z,95.80
2023-03-07T10:45:32.522Z,95.70
2023-03-07T10:46:38.039Z,95.70
2023-03-07T10:47:41.644Z,95.70
2023-03-07T10:48:46.251Z,95.50
2023-03-07T10:49:48.809Z,95.40
2023-03-07T10:51:00.146Z,95.00
2023-03-07T10:52:05.276Z,94.90
2023-03-07T10:53:16.928Z,94.80
2023-03-07T10:54:20.881Z,94.30
2023-03-07T10:55:42.241Z,93.80
2023-03-07T10:57:03.033Z,93.40
2023-03-07T10:58:17.046Z,92.90
2023-03-07T10:59:24.449Z,93.10
2023-03-07T11:00:26.448Z,92.50
2023-03-07T11:01:29.001Z,92.50
2023-03-07T11:02:46.421Z,92.00
2023-03-07T11:03:58.493Z,91.90
2023-03-07T11:05:00.685Z,91.50
2023-03-07T11:06:02.546Z,91.60
2023-03-07T11:07:04.353Z,91.40
2023-03-07T11:08:20.915Z,91.50
2023-03-07T11:09:34.290Z,91.80
2023-03-07T11:10:40.971Z,89.10
2023-03-07T11:11:50.236Z,80.20
2023-03-07T11:12:52.356Z,78.80
2023-03-07T11:14:05.492Z,78.50
2023-03-07T11:15:24.811Z,78.00
2023-03-07T11:16:26.758Z,71.00
2023-03-07T11:17:41.481Z,66.50
2023-03-07T11:18:44.980Z,65.80
2023-03-07T11:19:47.990Z,61.80
2023-03-07T11:20:50.798Z,59.10
2023-03-07T11:21:55.018Z,58.20
2023-03-07T11:23:24.373Z,58.80
2023-03-07T11:24:28.746Z,57.60
2023-03-07T11:25:35.989Z,56.00
2023-03-07T11:26:41.294Z,53.60
2023-03-07T11:27:45.940Z,51.70
2023-03-07T11:28:47.855Z,50.70
2023-03-07T11:30:28.472Z,48.10
2023-03-07T11:32:00.510Z,46.10
2023-03-07T11:33:08.193Z,45.80
2023-03-07T11:34:31.702Z,45.60
2023-03-07T11:36:00.821Z,44.40
2023-03-07T11:37:34.356Z,43.30
2023-03-07T11:38:39.326Z,42.70
2023-03-07T11:40:24.460Z,42.60
2023-03-07T11:41:39.451Z,42.40
2023-03-07T11:43:05.936Z,42.30
2023-03-07T11:44:26.445Z,42.20
2023-03-07T11:45:47.175Z,41.10
2023-03-07T11:47:19.677Z,41.30
2023-03-07T11:48:52.059Z,40.60
2023-03-07T11:50:23.718Z,40.90
2023-03-07T11:52:07.622Z,41.80
2023-03-07T11:53:24.679Z,40.40
2023-03-07T11:54:39.459Z,40.30
2023-03-07T11:56:00.703Z,40.80
2023-03-07T11:57:19.486Z,40.50
2023-03-07T11:58:33.574Z,39.70
2023-03-07T11:59:50.996Z,41.80
2023-03-07T12:01:21.546Z,40.40
2023-03-07T12:02:34.651Z,40.20
2023-03-07T12:04:14.394Z,40.50
2023-03-07T12:05:33.351Z,39.90
2023-03-07T12:07:06.675Z,37.40
2023-03-07T12:08:24.638Z,34.90
2023-03-07T12:09:51.600Z,36.10
2023-03-07T12:11:18.826Z,35.70
2023-03-07T12:12:55.520Z,35.60
2023-03-07T12:14:22.861Z,36.30
2023-03-07T12:15:47.183Z,35.60
2023-03-07T12:17:12.056Z,36.50
2023-03-07T12:18:38.071Z,36.40
2023-03-07T12:19:54.991Z,36.90
2023-03-07T12:21:34.135Z,37.00
2023-03-07T12:22:54.613Z,35.80
2023-03-07T12:24:11.481Z,36.40
2023-03-07T12:25:29.416Z,36.40
2023-03-07T12:26:43.099Z,36.80
2023-03-07T12:28:17.680Z,37.50
2023-03-07T12:29:39.810Z,37.70
2023-03-07T12:30:46.959Z,38.10
2023-03-07T12:31:56.577Z,38.80
2023-03-07T12:32:59.407Z,39.30
2023-03-07T12:34:14.245Z,39.50
2023-03-07T12:35:26.474Z,39.60
2023-03-07T12:36:44.681Z,38.70
2023-03-07T12:38:19.330Z,37.20
2023-03-07T12:39:31.350Z,34.90
2023-03-07T12:40:41.696Z,35.00
2023-03-07T12:42:05.661Z,36.40
2023-03-07T12:43:22.207Z,38.10
2023-03-07T12:44:40.417Z,40.60
2023-03-07T12:45:51.283Z,43.70
2023-03-07T12:47:17.708Z,45.90
2023-03-07T12:48:19.562Z,46.30
2023-03-07T12:49:26.432Z,45.40
2023-03-07T12:50:41.659Z,45.90
2023-03-07T12:51:50.911Z,46.30
2023-03-07T12:53:22.819Z,46.80
2023-03-07T12:54:30.013Z,47.30
2023-03-07T12:55:50.526Z,47.90
2023-03-07T12:57:06.286Z,47.80
2023-03-07T12:58:18.881Z,47.90
2023-03-07T12:59:22.051Z,47.70
2023-03-07T13:00:24.966Z,48.20
2023-03-07T13:01:35.130Z,48.70
2023-03-07T13:02:46.088Z,48.90
2023-03-07T13:04:16.370Z,49.30
2023-03-07T13:05:22.059Z,50.10
2023-03-07T13:06:25.235Z,50.30
2023-03-07T13:07:30.204Z,50.10
2023-03-07T13:08:32.859Z,50.30
2023-03-07T13:09:37.006Z,50.10
2023-03-07T13:10:39.511Z,50.00
2023-03-07T13:12:09.673Z,50.20
2023-03-07T13:13:47.371Z,50.70
2023-03-07T13:14:51.855Z,51.10
2023-03-07T13:16:20.106Z,51.50
2023-03-07T13:17:31.053Z,51.80
2023-03-07T13:18:33.418Z,52.10
2023-03-07T13:19:35.362Z,52.50
2023-03-07T13:20:39.089Z,52.90
2023-03-07T13:21:41.008Z,53.60
2023-03-07T13:22:43.117Z,54.10
2023-03-07T13:23:44.990Z,54.40
2023-03-07T13:24:47.514Z,54.60
2023-03-07T13:25:55.402Z,54.70
2023-03-07T13:26:57.326Z,54.70
2023-03-07T13:28:00.120Z,54.50
2023-03-07T13:29:01.904Z,54.40
2023-03-07T13:30:06.511Z,54.30
2023-03-07T13:31:11.215Z,54.60
2023-03-07T13:32:31.530Z,54.90
2023-03-07T13:33:33.316Z,55.00
2023-03-07T13:34:46.454Z,54.70
2023-03-07T13:35:56.360Z,54.80
2023-03-07T13:36:58.354Z,54.80
2023-03-07T13:38:04.543Z,54.70
2023-03-07T13:39:25.218Z,54.90
2023-03-07T13:40:37.070Z,54.90
2023-03-07T13:41:44.472Z,55.00
2023-03-07T13:42:47.470Z,55.10
2023-03-07T13:43:49.293Z,55.30
2023-03-07T13:44:51.158Z,55.50
2023-03-07T13:45:53.492Z,55.70
2023-03-07T13:47:01.248Z,55.90
2023-03-07T13:48:04.109Z,55.90
2023-03-07T13:49:07.322Z,56.00
2023-03-07T13:50:36.596Z,56.30
2023-03-07T13:51:38.599Z,56.70
2023-03-07T13:52:45.065Z,56.80
2023-03-07T13:53:48.896Z,57.10
2023-03-07T13:54:52.009Z,57.20
2023-03-07T13:56:15.365Z,57.50
2023-03-07T13:57:20.460Z,57.70
2023-03-07T13:58:35.742Z,57.90
2023-03-07T13:59:37.713Z,58.10
2023-03-07T14:00:50.111Z,58.20
2023-03-07T14:02:01.120Z,58.50
2023-03-07T14:03:03.769Z,58.60
2023-03-07T14:04:37.061Z,58.50
2023-03-07T14:05:41.687Z,58.80
2023-03-07T14:06:47.160Z,58.60